createdAt,value
2023-03-28T00:01:25.345Z,4.27
2023-03-28T00:03:51.811Z,4.22
2023-03-28T00:06:18.167Z,4.19
2023-03-28T00:08:44.533Z,4.23
2023-03-28T00:11:10.909Z,4.07
2023-03-28T00:13:37.250Z,4.05
2023-03-28T00:16:03.738Z,4.10
2023-03-28T00:18:30.044Z,3.97
2023-03-28T00:20:56.425Z,3.92
2023-03-28T00:23:22.813Z,3.91
2023-03-28T00:25:49.192Z,3.86
2023-03-28T00:28:15.508Z,3.88
2023-03-28T00:30:41.903Z,3.88
2023-03-28T00:33:08.259Z,3.83
2023-03-28T00:35:34.667Z,3.87
2023-03-28T00:38:00.943Z,3.76
2023-03-28T00:40:27.285Z,3.78
2023-03-28T00:42:53.672Z,3.72
2023-03-28T00:45:20.291Z,3.70
2023-03-28T00:47:46.666Z,3.65
2023-03-28T00:50:12.985Z,3.56
2023-03-28T00:52:39.367Z,3.51
2023-03-28T00:55:05.738Z,3.43
2023-03-28T00:57:32.174Z,3.37
2023-03-28T00:59:58.445Z,3.34
2023-03-28T01:02:24.933Z,3.34
2023-03-28T01:04:51.115Z,3.43
2023-03-28T01:07:17.475Z,3.52
2023-03-28T01:09:43.822Z,3.44
2023-03-28T01:12:10.172Z,3.48
2023-03-28T01:14:36.515Z,3.48
2023-03-28T01:17:02.833Z,3.48
2023-03-28T01:19:29.181Z,3.40
2023-03-28T01:21:55.537Z,3.43
2023-03-28T01:24:21.865Z,3.38
2023-03-28T01:26:48.241Z,3.30
2023-03-28T01:29:14.621Z,3.27
2023-03-28T01:31:41.039Z,3.16
2023-03-28T01:34:07.367Z,3.11
2023-03-28T01:36:35.610Z,3.10
2023-03-28T01:39:00.025Z,3.07
2023-03-28T01:41:26.340Z,3.10
2023-03-28T01:43:52.694Z,3.07
2023-03-28T01:46:19.076Z,3.08
2023-03-28T01:48:45.422Z,3.03
2023-03-28T01:51:11.755Z,3.08
2023-03-28T01:53:38.128Z,3.03
2023-03-28T01:56:04.505Z,2.93
2023-03-28T01:58:30.864Z,2.83
2023-03-28T02:00:57.239Z,2.85
2023-03-28T02:03:23.619Z,2.86
2023-03-28T02:05:49.936Z,2.84
2023-03-28T02:08:16.290Z,2.88
2023-03-28T02:10:42.648Z,2.78
2023-03-28T02:13:09.042Z,2.70
2023-03-28T02:15:35.416Z,2.76
2023-03-28T02:18:01.832Z,2.75
2023-03-28T02:20:28.122Z,2.73
2023-03-28T02:22:54.455Z,2.74
2023-03-28T02:25:20.778Z,2.75
2023-03-28T02:27:47.207Z,2.75
2023-03-28T02:30:13.532Z,2.71
2023-03-28T02:32:39.883Z,2.73
2023-03-28T02:35:06.255Z,2.69
2023-03-28T02:37:32.664Z,2.68
2023-03-28T02:39:59.024Z,2.67
2023-03-28T02:42:25.378Z,2.64
2023-03-28T02:44:51.730Z,2.68
2023-03-28T02:47:18.084Z,2.69
2023-03-28T02:49:50.368Z,2.71
2023-03-28T02:52:10.843Z,2.71
2023-03-28T02:54:37.203Z,2.67
2023-03-28T02:57:03.556Z,2.71
2023-03-28T02:59:29.881Z,2.69
2023-03-28T03:01:56.274Z,2.66
2023-03-28T03:04:22.563Z,2.68
2023-03-28T03:06:49.202Z,2.63
2023-03-28T03:09:15.541Z,2.59
2023-03-28T03:11:42.081Z,2.60
2023-03-28T03:14:08.370Z,2.52
2023-03-28T03:16:34.836Z,2.59
2023-03-28T03:19:01.116Z,2.57
2023-03-28T03:21:27.480Z,2.55
2023-03-28T03:23:53.844Z,2.52
2023-03-28T03:26:20.212Z,2.54
2023-03-28T03:28:46.557Z,2.58
2023-03-28T03:31:12.952Z,2.54
2023-03-28T03:33:39.292Z,2.46
2023-03-28T03:36:05.793Z,2.46
2023-03-28T03:38:32.030Z,2.44
2023-03-28T03:40:58.462Z,2.48
2023-03-28T03:43:24.822Z,2.41
2023-03-28T03:45:51.228Z,2.42
2023-03-28T03:48:17.583Z,2.43
2023-03-28T03:50:43.965Z,2.39
2023-03-28T03:53:10.267Z,2.37
2023-03-28T03:55:36.616Z,2.34
2023-03-28T03:58:02.954Z,2.36
2023-03-28T04:00:29.359Z,2.33
2023-03-28T04:02:55.723Z,2.33
2023-03-28T04:05:22.080Z,2.33
2023-03-28T04:07:48.469Z,2.29
2023-03-28T04:10:14.811Z,2.28
2023-03-28T04:12:41.162Z,2.28
2023-03-28T04:15:07.582Z,2.22
2023-03-28T04:17:33.952Z,2.30
2023-03-28T04:20:00.297Z,2.30
2023-03-28T04:22:26.663Z,2.24
2023-03-28T04:24:53.024Z,2.24
2023-03-28T04:27:19.341Z,2.29
2023-03-28T04:29:45.729Z,2.22
2023-03-28T04:32:12.089Z,2.27
2023-03-28T04:34:39.061Z,2.20
2023-03-28T04:37:04.772Z,2.27
2023-03-28T04:39:31.111Z,2.33
2023-03-28T04:41:57.481Z,2.34
2023-03-28T04:44:24.132Z,2.42
2023-03-28T04:46:50.487Z,2.47
2023-03-28T04:49:16.887Z,2.47
2023-03-28T04:51:43.278Z,2.38
2023-03-28T04:54:09.688Z,2.44
2023-03-28T04:56:37.112Z,2.36
2023-03-28T04:59:03.502Z,2.38
2023-03-28T05:01:29.850Z,2.38
2023-03-28T05:03:56.144Z,2.36
2023-03-28T05:06:24.735Z,2.35
2023-03-28T05:08:51.092Z,2.38
2023-03-28T05:11:17.465Z,2.48
2023-03-28T05:13:43.853Z,2.63
2023-03-28T05:16:12.659Z,2.65
2023-03-28T05:18:38.966Z,2.60
2023-03-28T05:21:05.273Z,2.59
2023-03-28T05:23:31.648Z,2.51
2023-03-28T05:25:58.010Z,2.41
2023-03-28T05:28:24.388Z,2.41
2023-03-28T05:30:50.713Z,2.44
2023-03-28T05:33:17.133Z,2.45
2023-03-28T05:35:43.529Z,2.41
2023-03-28T05:38:09.826Z,2.39
2023-03-28T05:40:36.216Z,2.37
2023-03-28T05:43:02.580Z,2.41
2023-03-28T05:45:28.946Z,2.46
2023-03-28T05:47:55.278Z,2.45
2023-03-28T05:50:21.651Z,2.38
2023-03-28T05:52:48.009Z,2.37
2023-03-28T05:55:14.386Z,2.34
2023-03-28T05:57:40.814Z,2.32
2023-03-28T06:00:09.026Z,2.29
2023-03-28T06:02:35.353Z,2.30
2023-03-28T06:05:01.848Z,2.35
2023-03-28T06:07:39.354Z,2.32
2023-03-28T06:09:54.771Z,2.41
2023-03-28T06:12:21.173Z,2.46
2023-03-28T06:14:47.574Z,2.43
2023-03-28T06:17:14.000Z,2.41
2023-03-28T06:19:40.316Z,2.35
2023-03-28T06:22:06.678Z,2.45
2023-03-28T06:24:33.058Z,2.57
2023-03-28T06:26:59.396Z,2.70
2023-03-28T06:29:25.825Z,2.76
2023-03-28T06:31:52.249Z,2.71
2023-03-28T06:34:18.516Z,2.77
2023-03-28T06:36:44.894Z,2.86
2023-03-28T06:39:11.259Z,2.86
2023-03-28T06:41:37.624Z,2.84
2023-03-28T06:44:04.006Z,2.92
2023-03-28T06:46:30.360Z,2.91
2023-03-28T06:48:56.839Z,2.91
2023-03-28T06:51:23.210Z,2.89
2023-03-28T06:53:49.631Z,2.72
2023-03-28T06:56:15.942Z,2.63
2023-03-28T06:58:42.355Z,2.67
2023-03-28T07:01:08.718Z,2.76
2023-03-28T07:03:35.181Z,2.64
2023-03-28T07:06:01.429Z,2.60
2023-03-28T07:08:28.195Z,2.57
2023-03-28T07:10:54.555Z,2.65
2023-03-28T07:13:20.898Z,2.73
2023-03-28T07:15:47.303Z,2.96
2023-03-28T07:18:13.687Z,3.24
2023-03-28T07:20:41.056Z,3.29
2023-03-28T07:23:07.470Z,3.52
2023-03-28T07:25:33.887Z,3.79
2023-03-28T07:28:00.218Z,4.03
2023-03-28T07:30:26.656Z,4.01
2023-03-28T07:33:01.676Z,4.55
2023-03-28T07:35:19.326Z,4.39
2023-03-28T07:37:46.050Z,4.44
2023-03-28T07:40:12.396Z,4.27
2023-03-28T07:42:38.809Z,4.16
2023-03-28T07:45:05.245Z,3.90
2023-03-28T07:47:31.668Z,3.65
2023-03-28T07:49:57.953Z,3.64
2023-03-28T07:52:24.386Z,3.52
2023-03-28T07:54:50.742Z,3.16
2023-03-28T07:57:17.256Z,3.11
2023-03-28T07:59:43.735Z,3.23
2023-03-28T08:02:10.130Z,3.23
2023-03-28T08:04:36.453Z,3.26
2023-03-28T08:07:02.846Z,3.46
2023-03-28T08:09:29.210Z,3.29
2023-03-28T08:11:55.561Z,3.23
2023-03-28T08:14:22.226Z,3.22
2023-03-28T08:16:48.624Z,3.16
2023-03-28T08:19:15.038Z,3.23
2023-03-28T08:21:41.391Z,3.16
2023-03-28T08:24:07.956Z,3.11
2023-03-28T08:26:34.320Z,3.16
2023-03-28T08:29:00.692Z,3.22
2023-03-28T08:31:27.052Z,3.42
2023-03-28T08:33:53.362Z,3.44
2023-03-28T08:36:19.742Z,3.43
2023-03-28T08:38:46.117Z,3.27
2023-03-28T08:41:12.456Z,3.38
2023-03-28T08:43:38.821Z,3.69
2023-03-28T08:46:05.262Z,4.06
2023-03-28T08:48:31.602Z,4.30
2023-03-28T08:50:58.032Z,4.26
2023-03-28T08:53:24.395Z,4.00
2023-03-28T08:55:52.301Z,3.93
2023-03-28T08:58:17.030Z,4.08
2023-03-28T09:00:43.390Z,4.09
2023-03-28T09:03:09.801Z,4.19
2023-03-28T09:05:36.101Z,4.61
2023-03-28T09:08:02.475Z,4.27
2023-03-28T09:10:28.889Z,4.17
2023-03-28T09:12:55.250Z,4.14
2023-03-28T09:15:21.580Z,4.36
2023-03-28T09:17:48.169Z,4.16
2023-03-28T09:20:14.523Z,4.61
2023-03-28T09:22:40.906Z,4.22
2023-03-28T09:25:07.313Z,4.07
2023-03-28T09:27:33.676Z,4.29
2023-03-28T09:30:00.122Z,4.24
2023-03-28T09:32:26.671Z,4.73
2023-03-28T09:34:53.012Z,4.67
2023-03-28T09:37:19.379Z,4.64
2023-03-28T09:39:45.729Z,4.57
2023-03-28T09:42:12.130Z,4.78
2023-03-28T09:44:50.970Z,5.23
2023-03-28T09:47:04.887Z,5.08
2023-03-28T09:49:31.251Z,4.93
2023-03-28T09:51:57.594Z,4.99
2023-03-28T09:54:23.973Z,5.42
2023-03-28T09:56:50.349Z,5.65
2023-03-28T09:59:16.725Z,5.66
2023-03-28T10:01:43.122Z,4.99
2023-03-28T10:04:09.529Z,5.10
2023-03-28T10:06:35.830Z,4.99
2023-03-28T10:09:02.295Z,4.89
2023-03-28T10:11:28.620Z,4.81
2023-03-28T10:13:55.009Z,4.70
2023-03-28T10:16:21.412Z,4.57
2023-03-28T10:18:47.789Z,5.28
2023-03-28T10:21:14.331Z,6.99
2023-03-28T10:23:40.746Z,6.56
2023-03-28T10:26:07.152Z,5.85
2023-03-28T10:28:33.802Z,5.41
2023-03-28T10:31:00.275Z,4.67
2023-03-28T10:33:26.513Z,4.66
2023-03-28T10:35:53.028Z,4.47
2023-03-28T10:38:19.347Z,4.43
2023-03-28T10:40:45.693Z,4.66
2023-03-28T10:43:12.099Z,6.11
2023-03-28T10:45:38.431Z,7.23
2023-03-28T10:48:04.920Z,6.99
2023-03-28T10:50:31.161Z,6.74
2023-03-28T10:52:57.556Z,6.07
2023-03-28T10:55:24.059Z,5.17
2023-03-28T10:57:50.397Z,5.32
2023-03-28T11:00:16.732Z,6.10
2023-03-28T11:02:43.205Z,7.40
2023-03-28T11:05:09.545Z,6.92
2023-03-28T11:07:35.975Z,7.08
2023-03-28T11:10:02.301Z,6.85
2023-03-28T11:12:31.011Z,6.29
2023-03-28T11:14:55.129Z,7.13
2023-03-28T11:17:21.534Z,7.78
2023-03-28T11:19:48.100Z,8.04
2023-03-28T11:22:14.488Z,7.41
2023-03-28T11:24:40.895Z,7.66
2023-03-28T11:27:15.352Z,7.31
2023-03-28T11:29:42.593Z,6.90
2023-03-28T11:32:00.205Z,7.15
2023-03-28T11:34:26.505Z,7.52
2023-03-28T11:36:52.903Z,7.58
2023-03-28T11:39:19.332Z,7.57
2023-03-28T11:41:45.774Z,7.39
2023-03-28T11:44:12.026Z,6.97
2023-03-28T11:46:38.526Z,7.59
2023-03-28T11:49:04.814Z,7.92
2023-03-28T11:51:31.178Z,7.44
2023-03-28T11:53:57.734Z,7.24
2023-03-28T11:56:24.111Z,7.73
2023-03-28T11:58:50.429Z,8.16
2023-03-28T12:01:16.881Z,8.10
2023-03-28T12:03:43.273Z,8.85
2023-03-28T12:06:10.946Z,8.98
2023-03-28T12:08:35.949Z,8.64
2023-03-28T12:11:02.508Z,8.27
2023-03-28T12:13:28.909Z,8.45
2023-03-28T12:15:55.324Z,8.14
2023-03-28T12:18:21.722Z,8.03
2023-03-28T12:20:48.104Z,7.53
2023-03-28T12:23:14.489Z,7.87
2023-03-28T12:25:41.348Z,8.08
2023-03-28T12:28:07.737Z,8.29
2023-03-28T12:30:34.125Z,8.33
2023-03-28T12:33:00.507Z,7.71
2023-03-28T12:35:26.871Z,7.71
2023-03-28T12:37:53.383Z,8.03
2023-03-28T12:40:19.717Z,8.68
2023-03-28T12:42:46.103Z,8.75
2023-03-28T12:45:12.468Z,7.76
2023-03-28T12:47:38.837Z,7.60
2023-03-28T12:50:05.193Z,8.15
2023-03-28T12:52:31.822Z,7.99
2023-03-28T12:55:00.844Z,7.70
2023-03-28T12:59:51.016Z,6.71
2023-03-28T13:02:17.338Z,6.59
2023-03-28T13:04:44.313Z,6.65
2023-03-28T13:07:10.778Z,6.61
2023-03-28T13:09:37.174Z,6.57
2023-03-28T13:12:03.580Z,6.30
2023-03-28T13:14:30.473Z,6.22
2023-03-28T13:16:56.811Z,6.37
2023-03-28T13:19:23.208Z,6.28
2023-03-28T13:21:49.663Z,6.35
2023-03-28T13:24:16.039Z,6.62
2023-03-28T13:26:42.407Z,6.66
2023-03-28T13:29:08.991Z,6.43
2023-03-28T13:31:35.334Z,6.38
2023-03-28T13:34:01.970Z,6.34
2023-03-28T13:36:28.106Z,6.21
2023-03-28T13:38:54.443Z,6.22
2023-03-28T13:41:20.752Z,6.40
2023-03-28T13:43:47.147Z,6.38
2023-03-28T13:46:13.600Z,6.24
2023-03-28T13:48:39.888Z,6.31
2023-03-28T13:51:06.272Z,6.41
2023-03-28T13:53:46.432Z,6.54
2023-03-28T13:55:59.267Z,6.31
2023-03-28T13:58:25.368Z,6.39
2023-03-28T14:00:51.695Z,6.37
2023-03-28T14:03:18.410Z,6.37
2023-03-28T14:05:44.628Z,6.56
2023-03-28T14:08:11.003Z,6.58
2023-03-28T14:10:37.417Z,6.67
2023-03-28T14:13:03.773Z,6.58
2023-03-28T14:15:30.438Z,6.43
2023-03-28T14:17:56.518Z,6.34
2023-03-28T14:20:22.900Z,6.45
2023-03-28T14:22:59.871Z,6.46
2023-03-28T14:25:15.881Z,6.60
2023-03-28T14:27:42.263Z,6.61
2023-03-28T14:30:08.592Z,6.68
2023-03-28T14:32:37.823Z,6.62
2023-03-28T14:35:01.459Z,6.56
2023-03-28T14:37:27.948Z,6.39
2023-03-28T14:39:54.387Z,6.36
2023-03-28T14:42:20.732Z,6.28
2023-03-28T14:44:47.113Z,6.27
2023-03-28T14:47:13.525Z,6.17
2023-03-28T14:49:39.920Z,6.21
2023-03-28T14:52:06.313Z,6.19
2023-03-28T14:54:32.889Z,6.15
2023-03-28T14:56:59.161Z,6.03
2023-03-28T14:59:25.485Z,6.00
2023-03-28T15:01:51.905Z,5.80
2023-03-28T15:04:18.149Z,5.77
2023-03-28T15:06:44.535Z,5.82
2023-03-28T15:09:10.868Z,5.86
2023-03-28T15:11:37.213Z,5.91
2023-03-28T15:14:04.390Z,5.87
2023-03-28T15:16:30.853Z,5.79
2023-03-28T15:18:57.403Z,5.82
2023-03-28T15:21:23.844Z,5.78
2023-03-28T15:23:50.140Z,5.74
2023-03-28T15:26:16.545Z,5.71
2023-03-28T15:28:42.860Z,5.68
2023-03-28T15:31:09.969Z,5.71
2023-03-28T15:33:36.273Z,5.69
2023-03-28T15:36:02.682Z,5.64
2023-03-28T15:38:29.310Z,5.63
2023-03-28T15:40:55.665Z,5.58
2023-03-28T15:43:23.151Z,5.54
2023-03-28T15:45:49.612Z,5.46
2023-03-28T15:48:15.987Z,5.28
2023-03-28T15:50:42.377Z,5.19
2023-03-28T15:53:08.764Z,5.10
2023-03-28T15:55:35.157Z,4.97
2023-03-28T15:58:01.506Z,4.92
2023-03-28T16:00:27.868Z,4.70
2023-03-28T16:02:55.749Z,4.48
2023-03-28T16:05:21.945Z,4.38
2023-03-28T16:07:48.430Z,4.34
2023-03-28T16:10:24.570Z,4.32
2023-03-28T16:12:57.074Z,4.29
2023-03-28T16:15:23.569Z,4.23
2023-03-28T16:17:55.456Z,4.21
2023-03-28T16:20:22.917Z,4.20
2023-03-28T16:22:49.735Z,4.21
2023-03-28T16:25:16.137Z,4.18
2023-03-28T16:27:46.149Z,4.12
2023-03-28T16:30:13.212Z,4.05
2023-03-28T16:32:39.674Z,4.00
2023-03-28T16:35:06.163Z,4.03
2023-03-28T16:37:32.647Z,4.01
2023-03-28T16:40:03.566Z,3.98
2023-03-28T16:42:31.261Z,3.97
2023-03-28T16:44:57.974Z,3.95
2023-03-28T16:47:24.666Z,3.96
2023-03-28T16:49:51.372Z,3.94
2023-03-28T16:52:19.765Z,3.92
2023-03-28T16:54:47.281Z,3.92
2023-03-28T16:57:13.648Z,3.92
2023-03-28T16:59:41.049Z,3.93
2023-03-28T17:02:07.623Z,3.94
2023-03-28T17:04:33.974Z,3.92
2023-03-28T17:07:00.363Z,3.85
2023-03-28T17:09:26.710Z,3.77
2023-03-28T17:11:53.122Z,3.68
2023-03-28T17:14:19.654Z,3.61
2023-03-28T17:16:46.033Z,3.61
2023-03-28T17:19:12.382Z,3.55
2023-03-28T17:21:39.932Z,3.53
2023-03-28T17:24:06.286Z,3.50
2023-03-28T17:26:33.508Z,3.43
2023-03-28T17:28:59.881Z,3.40
2023-03-28T17:31:26.359Z,3.40
2023-03-28T17:33:55.239Z,3.31
2023-03-28T17:36:22.106Z,3.31
2023-03-28T17:38:48.974Z,3.24
2023-03-28T17:41:22.829Z,3.22
2023-03-28T17:43:49.266Z,3.22
2023-03-28T17:46:15.726Z,3.18
2023-03-28T17:48:42.201Z,3.15
2023-03-28T17:51:08.603Z,3.13
2023-03-28T17:53:35.129Z,3.08
2023-03-28T17:56:01.793Z,3.02
2023-03-28T17:58:27.886Z,2.96
2023-03-28T18:00:54.890Z,2.94
2023-03-28T18:03:21.272Z,2.95
2023-03-28T18:05:47.593Z,2.88
2023-03-28T18:08:14.000Z,2.84
2023-03-28T18:10:40.573Z,2.78
2023-03-28T18:13:07.083Z,2.78
2023-03-28T18:15:33.437Z,2.76
2023-03-28T18:17:59.958Z,2.72
2023-03-28T18:20:26.325Z,2.69
2023-03-28T18:22:52.698Z,2.67
2023-03-28T18:25:19.137Z,2.65
2023-03-28T18:27:45.457Z,2.62
2023-03-28T18:30:11.814Z,2.58
2023-03-28T18:32:38.215Z,2.54
2023-03-28T18:35:04.534Z,2.51
2023-03-28T18:37:30.940Z,2.55
2023-03-28T18:39:57.323Z,2.53
2023-03-28T18:42:23.703Z,2.49
2023-03-28T18:44:50.112Z,2.46
2023-03-28T18:47:16.467Z,2.46
2023-03-28T18:49:43.342Z,2.46
2023-03-28T18:52:09.837Z,2.46
2023-03-28T18:54:36.278Z,2.41
2023-03-28T18:57:04.923Z,2.39
2023-03-28T18:59:31.201Z,2.35
2023-03-28T19:01:57.502Z,2.34
2023-03-28T19:04:23.968Z,2.33
2023-03-28T19:06:50.398Z,2.32
2023-03-28T19:09:16.826Z,2.28
2023-03-28T19:11:43.295Z,2.29
2023-03-28T19:14:09.642Z,2.25
2023-03-28T19:16:36.106Z,2.25
2023-03-28T19:19:02.435Z,2.22
2023-03-28T19:21:28.750Z,2.21
2023-03-28T19:23:55.206Z,2.18
2023-03-28T19:26:21.549Z,2.19
2023-03-28T19:28:47.904Z,2.18
2023-03-28T19:31:14.490Z,2.14
2023-03-28T19:33:40.622Z,2.14
2023-03-28T19:36:07.547Z,2.11
2023-03-28T19:38:33.802Z,2.08
2023-03-28T19:41:00.210Z,2.08
2023-03-28T19:43:27.193Z,2.11
2023-03-28T19:45:53.649Z,2.04
2023-03-28T19:48:20.023Z,2.05
2023-03-28T19:50:46.332Z,2.06
2023-03-28T19:53:12.720Z,2.06
2023-03-28T19:55:39.119Z,2.01
2023-03-28T19:58:05.503Z,2.01
2023-03-28T20:00:31.856Z,2.02
2023-03-28T20:02:58.533Z,2.03
2023-03-28T20:05:24.761Z,2.02
2023-03-28T20:07:51.139Z,2.03
2023-03-28T20:10:17.540Z,2.03
2023-03-28T20:12:43.916Z,2.00
2023-03-28T20:15:11.310Z,2.02
2023-03-28T20:17:37.799Z,1.96
2023-03-28T20:20:03.983Z,2.00
2023-03-28T20:22:30.323Z,2.01
2023-03-28T20:24:56.699Z,1.96
2023-03-28T20:27:23.086Z,1.99
2023-03-28T20:29:49.448Z,1.98
2023-03-28T20:32:15.810Z,1.97
2023-03-28T20:34:42.249Z,1.94
2023-03-28T20:37:08.592Z,1.97
2023-03-28T20:39:34.970Z,1.92
2023-03-28T20:42:01.586Z,1.97
2023-03-28T20:44:27.945Z,1.97
2023-03-28T20:46:54.402Z,1.93
2023-03-28T20:49:20.958Z,1.90
2023-03-28T20:51:47.591Z,1.90
2023-03-28T20:54:13.946Z,1.90
2023-03-28T20:56:40.292Z,1.87
2023-03-28T20:59:06.805Z,1.88
2023-03-28T21:01:33.205Z,1.86
2023-03-28T21:03:59.450Z,1.89
2023-03-28T21:06:25.860Z,1.91
2023-03-28T21:08:52.279Z,1.87
2023-03-28T21:11:18.606Z,1.86
2023-03-28T21:13:44.963Z,1.86
2023-03-28T21:16:11.420Z,1.90
2023-03-28T21:18:37.730Z,1.96
2023-03-28T21:21:04.232Z,1.99
2023-03-28T21:23:30.630Z,2.03
2023-03-28T21:25:57.001Z,2.07
2023-03-28T21:28:23.361Z,2.10
2023-03-28T21:30:49.791Z,2.11
2023-03-28T21:33:16.204Z,2.13
2023-03-28T21:35:42.638Z,2.16
2023-03-28T21:38:10.661Z,2.16
2023-03-28T21:40:35.436Z,2.17
2023-03-28T21:43:01.921Z,2.17
2023-03-28T21:45:28.343Z,2.11
2023-03-28T21:47:54.701Z,2.17
2023-03-28T21:50:21.158Z,2.12
2023-03-28T21:52:47.520Z,2.14
2023-03-28T21:55:15.169Z,2.01
2023-03-28T21:57:41.540Z,1.91
2023-03-28T22:00:08.140Z,1.85
2023-03-28T22:02:34.545Z,1.75
2023-03-28T22:05:00.909Z,1.71
2023-03-28T22:07:27.534Z,1.65
2023-03-28T22:09:53.970Z,1.62
2023-03-28T22:12:22.695Z,1.56
2023-03-28T22:14:49.206Z,1.56
2023-03-28T22:17:15.489Z,1.57
2023-03-28T22:19:41.836Z,1.60
2023-03-28T22:22:08.157Z,1.62
2023-03-28T22:24:34.539Z,1.70
2023-03-28T22:27:00.892Z,1.75
2023-03-28T22:29:27.280Z,1.76
2023-03-28T22:31:53.685Z,1.76
2023-03-28T22:34:19.993Z,1.74
2023-03-28T22:36:46.360Z,1.71
2023-03-28T22:39:12.684Z,1.69
2023-03-28T22:41:39.084Z,1.68
2023-03-28T22:44:05.452Z,1.66
2023-03-28T22:46:31.806Z,1.63
2023-03-28T22:48:58.154Z,1.61
2023-03-28T22:51:24.690Z,1.60
2023-03-28T22:53:51.004Z,1.57
2023-03-28T22:56:17.604Z,1.56
2023-03-28T22:58:43.961Z,1.50
2023-03-28T23:01:10.307Z,1.44
2023-03-28T23:03:36.793Z,1.43
2023-03-28T23:06:03.161Z,1.42
2023-03-28T23:08:29.493Z,1.38
2023-03-28T23:10:55.897Z,1.37
2023-03-28T23:13:22.212Z,1.38
2023-03-28T23:15:48.600Z,1.33
2023-03-28T23:18:14.925Z,1.29
2023-03-28T23:20:41.228Z,1.30
2023-03-28T23:23:07.792Z,1.27
2023-03-28T23:25:34.136Z,1.27
2023-03-28T23:28:00.672Z,1.26
2023-03-28T23:30:27.030Z,1.24
2023-03-28T23:32:53.547Z,1.18
2023-03-28T23:35:19.882Z,1.16
2023-03-28T23:37:46.198Z,1.16
2023-03-28T23:40:12.554Z,1.12
2023-03-28T23:42:38.887Z,1.08
2023-03-28T23:45:05.278Z,1.04
2023-03-28T23:47:31.858Z,1.05
2023-03-28T23:49:59.239Z,1.03
2023-03-28T23:52:25.643Z,0.99
2023-03-28T23:54:52.086Z,1.00
2023-03-28T23:57:18.566Z,0.98
2023-03-28T23:59:44.819Z,0.95
